UTAA Airport Information

Runway Information
Runway 11 Length 5907 ft width 114 ft
Elevation 0 ft Threshold 990 ft Heading 112
Runway 29 Length 5907 ft Width 114 ft
Elevation 0 ft Threshold 1965 ft Heading 292
Runway 12L Length 12467 ft width 151 ft
Elevation 682 ft Threshold 0 ft Heading 119
Runway 30R Length 12467 ft Width 151 ft
Elevation 679 ft Threshold 0 ft Heading 299
Runway 12R Length 9806 ft width 196 ft
Elevation 689 ft Threshold 0 ft Heading 119
Runway 30L Length 9806 ft Width 196 ft
Elevation 679 ft Threshold 0 ft Heading 299
Airport Frequencies
Type APP Name APP Frequency 123.5 MHZ
Type GCA Name APP Frequency 118.7 MHZ
Type GND Name GND Frequency 121.7 MHZ
Type TWR Name TWR Frequency 120 MHZ
Airport Navaids
Type NDB Name Ashgabat Frequency 407 KHZ
Type VOR-DME Name Ashgabat Frequency 114500 KHZ
Type NDB Name Ashgabat Frequency 320 KHZ
Type NDB Name Ashgabat Frequency 295 KHZ
Airport Weather Information & NOTAM
ADDS - METARS form results

(2115 UTC 16 August 2018)
 
METAR text: UTAA 162100Z VRB02KT 9999 NSC 29/14 Q1009 R88/70D NOSIG
Conditions at: UTAA (ASHGABAT , TM) observed 2100 UTC 16 August 2018
Temperature: 29.0°C (84°F)
Dewpoint: 14.0°C (57°F) [RH = 40%]
Pressure (altimeter): 29.79 inches Hg (1009.0 mb)
Winds: variable direction winds at 2 MPH (2 knots; 1.0 m/s)
Visibility: 6 or more miles (10+ km)
Ceiling: at least 12,000 feet AGL
Clouds: sky clear below 12,000 feet AGL
Weather: no significant weather observed at this time